createdAt,value
2022-07-29T00:00:45.900Z,70.36
2022-07-29T00:01:45.976Z,70.36
2022-07-29T00:02:46.111Z,70.36
2022-07-29T00:03:46.347Z,70.36
2022-07-29T00:04:46.249Z,70.36
2022-07-29T00:05:46.396Z,70.36
2022-07-29T00:06:46.438Z,70.50
2022-07-29T00:07:46.518Z,70.50
2022-07-29T00:08:46.607Z,70.59
2022-07-29T00:09:51.994Z,70.59
2022-07-29T00:10:46.778Z,70.69
2022-07-29T00:11:46.854Z,70.69
2022-07-29T00:12:46.936Z,70.69
2022-07-29T00:13:50.925Z,70.69
2022-07-29T00:14:47.148Z,70.69
2022-07-29T00:15:47.191Z,70.79
2022-07-29T00:16:47.365Z,70.79
2022-07-29T00:17:47.344Z,70.79
2022-07-29T00:18:47.437Z,70.79
2022-07-29T00:19:47.616Z,70.79
2022-07-29T00:20:47.626Z,70.89
2022-07-29T00:21:47.720Z,70.89
2022-07-29T00:22:47.801Z,70.96
2022-07-29T00:23:47.892Z,70.86
2022-07-29T00:24:47.970Z,70.76
2022-07-29T00:25:48.061Z,70.76
2022-07-29T00:26:48.115Z,70.76
2022-07-29T00:27:48.212Z,70.79
2022-07-29T00:28:48.370Z,70.89
2022-07-29T00:29:48.488Z,71.00
2022-07-29T00:30:48.457Z,70.96
2022-07-29T00:31:48.669Z,70.96
2022-07-29T00:32:48.655Z,70.96
2022-07-29T00:33:48.728Z,70.96
2022-07-29T00:34:48.855Z,70.96
2022-07-29T00:35:48.837Z,70.96
2022-07-29T00:36:48.907Z,70.96
2022-07-29T00:37:49.038Z,70.96
2022-07-29T00:38:49.086Z,70.96
2022-07-29T00:39:49.245Z,71.06
2022-07-29T00:40:49.245Z,71.06
2022-07-29T00:41:49.335Z,71.16
2022-07-29T00:42:49.466Z,71.16
2022-07-29T00:43:49.496Z,71.16
2022-07-29T00:44:49.607Z,71.16
2022-07-29T00:45:49.678Z,71.16
2022-07-29T00:46:49.779Z,71.16
2022-07-29T00:47:49.793Z,71.16
2022-07-29T00:48:49.990Z,71.16
2022-07-29T00:49:50.002Z,71.06
2022-07-29T00:50:50.042Z,71.06
2022-07-29T00:51:50.173Z,71.06
2022-07-29T00:52:50.172Z,71.26
2022-07-29T00:53:50.272Z,71.16
2022-07-29T00:54:50.381Z,71.16
2022-07-29T00:55:50.435Z,71.16
2022-07-29T00:56:50.525Z,71.06
2022-07-29T00:57:50.602Z,70.96
2022-07-29T00:58:50.636Z,70.96
2022-07-29T00:59:50.767Z,70.96
2022-07-29T01:00:50.839Z,70.86
2022-07-29T01:01:50.900Z,70.96
2022-07-29T01:02:51.015Z,70.86
2022-07-29T01:03:51.069Z,70.86
2022-07-29T01:04:51.136Z,70.86
2022-07-29T01:05:52.002Z,70.86
2022-07-29T01:06:51.293Z,70.96
2022-07-29T01:07:51.397Z,70.96
2022-07-29T01:08:51.482Z,70.96
2022-07-29T01:09:51.550Z,71.00
2022-07-29T01:10:51.604Z,71.09
2022-07-29T01:11:51.700Z,71.39
2022-07-29T01:12:51.745Z,71.50
2022-07-29T01:13:51.855Z,71.70
2022-07-29T01:14:51.933Z,71.59
2022-07-29T01:15:52.086Z,71.59
2022-07-29T01:16:52.044Z,71.59
2022-07-29T01:17:53.427Z,71.59
2022-07-29T01:18:52.247Z,71.59
2022-07-29T01:19:52.290Z,71.50
2022-07-29T01:20:52.395Z,71.39
2022-07-29T01:21:52.471Z,71.30
2022-07-29T01:22:52.580Z,71.39
2022-07-29T01:23:52.715Z,71.50
2022-07-29T01:24:52.733Z,71.50
2022-07-29T01:25:55.744Z,71.70
2022-07-29T01:26:52.825Z,71.59
2022-07-29T01:27:52.913Z,71.59
2022-07-29T01:28:53.015Z,71.70
2022-07-29T01:29:53.137Z,71.70
2022-07-29T01:30:53.198Z,71.70
2022-07-29T01:31:59.272Z,71.70
2022-07-29T01:32:53.389Z,71.59
2022-07-29T01:33:53.479Z,71.59
2022-07-29T01:34:53.617Z,71.70
2022-07-29T01:35:53.668Z,71.80
2022-07-29T01:36:53.808Z,71.70
2022-07-29T01:37:53.879Z,71.70
2022-07-29T01:38:53.873Z,71.70
2022-07-29T01:39:54.010Z,71.59
2022-07-29T01:40:54.090Z,71.50
2022-07-29T01:41:54.152Z,71.50
2022-07-29T01:42:54.213Z,71.39
2022-07-29T01:43:54.293Z,71.59
2022-07-29T01:44:54.405Z,71.50
2022-07-29T01:45:54.461Z,71.50
2022-07-29T01:46:54.626Z,71.50
2022-07-29T01:47:55.486Z,71.50
2022-07-29T01:48:54.794Z,71.50
2022-07-29T01:49:54.791Z,71.50
2022-07-29T01:50:54.830Z,71.50
2022-07-29T01:51:54.902Z,71.39
2022-07-29T01:52:55.038Z,71.30
2022-07-29T01:53:55.068Z,71.20
2022-07-29T01:54:55.192Z,71.13
2022-07-29T01:55:55.241Z,71.13
2022-07-29T01:56:55.325Z,71.23
2022-07-29T01:57:55.487Z,71.23
2022-07-29T01:58:55.491Z,71.23
2022-07-29T01:59:55.573Z,71.23
2022-07-29T02:00:55.692Z,71.33
2022-07-29T02:01:55.824Z,71.33
2022-07-29T02:02:55.808Z,71.43
2022-07-29T02:03:55.901Z,71.43
2022-07-29T02:04:56.040Z,71.43
2022-07-29T02:05:56.108Z,71.43
2022-07-29T02:06:56.145Z,71.43
2022-07-29T02:07:56.269Z,71.53
2022-07-29T02:08:56.350Z,71.53
2022-07-29T02:09:56.433Z,71.43
2022-07-29T02:10:56.489Z,71.33
2022-07-29T02:11:56.581Z,71.33
2022-07-29T02:12:56.642Z,71.33
2022-07-29T02:13:56.720Z,71.13
2022-07-29T02:14:56.832Z,71.13
2022-07-29T02:15:56.937Z,71.23
2022-07-29T02:16:56.983Z,71.33
2022-07-29T02:17:57.077Z,71.43
2022-07-29T02:18:57.207Z,71.33
2022-07-29T02:19:57.268Z,71.23
2022-07-29T02:20:57.333Z,71.23
2022-07-29T02:21:57.420Z,71.13
2022-07-29T02:22:57.509Z,71.23
2022-07-29T02:23:57.566Z,71.23
2022-07-29T02:24:57.677Z,71.23
2022-07-29T02:25:57.733Z,71.23
2022-07-29T02:26:57.806Z,71.13
2022-07-29T02:27:57.887Z,71.00
2022-07-29T02:28:58.001Z,71.00
2022-07-29T02:29:58.073Z,71.00
2022-07-29T02:30:58.210Z,71.00
2022-07-29T02:31:58.234Z,70.89
2022-07-29T02:32:58.387Z,70.79
2022-07-29T02:33:58.423Z,70.69
2022-07-29T02:34:58.618Z,70.59
2022-07-29T02:35:58.589Z,70.59
2022-07-29T02:36:58.690Z,70.69
2022-07-29T02:37:58.803Z,70.59
2022-07-29T02:38:58.852Z,70.50
2022-07-29T02:39:58.960Z,70.39
2022-07-29T02:40:59.057Z,70.50
2022-07-29T02:41:59.112Z,70.50
2022-07-29T02:42:59.174Z,70.50
2022-07-29T02:43:59.299Z,70.50
2022-07-29T02:44:59.417Z,70.39
2022-07-29T02:45:59.561Z,70.29
2022-07-29T02:46:59.613Z,70.39
2022-07-29T02:47:59.705Z,70.39
2022-07-29T02:48:59.874Z,70.39
2022-07-29T02:50:00.645Z,70.29
2022-07-29T02:50:59.890Z,70.19
2022-07-29T02:51:59.945Z,70.23
2022-07-29T02:53:00.036Z,70.23
2022-07-29T02:54:00.119Z,70.12
2022-07-29T02:55:00.223Z,70.12
2022-07-29T02:56:00.261Z,70.12
2022-07-29T02:57:00.357Z,70.03
2022-07-29T02:58:00.445Z,70.03
2022-07-29T02:59:00.589Z,70.03
2022-07-29T03:00:00.635Z,70.32
2022-07-29T03:01:00.722Z,70.12
2022-07-29T03:02:00.872Z,70.12
2022-07-29T03:03:00.857Z,70.36
2022-07-29T03:04:00.953Z,70.36
2022-07-29T03:05:01.224Z,70.36
2022-07-29T03:06:01.108Z,70.36
2022-07-29T03:07:01.223Z,70.36
2022-07-29T03:08:01.279Z,70.46
2022-07-29T03:15:11.596Z,71.23
2022-07-29T03:16:12.733Z,71.33
2022-07-29T03:17:12.692Z,71.43
2022-07-29T03:18:13.555Z,71.47
2022-07-29T03:19:12.946Z,71.56
2022-07-29T03:20:12.960Z,71.56
2022-07-29T03:21:13.082Z,71.56
2022-07-29T03:22:13.130Z,71.56
2022-07-29T03:23:13.186Z,71.67
2022-07-29T03:24:13.454Z,71.67
2022-07-29T03:25:13.373Z,71.67
2022-07-29T03:26:13.500Z,71.77
2022-07-29T03:27:13.553Z,71.77
2022-07-29T03:28:13.603Z,71.87
2022-07-29T03:29:13.675Z,71.87
2022-07-29T03:30:18.389Z,71.97
2022-07-29T03:31:13.936Z,72.07
2022-07-29T03:32:13.913Z,72.07
2022-07-29T03:33:14.067Z,71.97
2022-07-29T03:34:14.348Z,72.07
2022-07-29T03:35:14.119Z,72.07
2022-07-29T03:36:14.229Z,72.07
2022-07-29T03:37:14.277Z,72.07
2022-07-29T03:38:14.389Z,72.07
2022-07-29T03:39:14.463Z,71.97
2022-07-29T03:40:14.535Z,72.07
2022-07-29T03:41:14.646Z,72.27
2022-07-29T03:42:14.697Z,72.17
2022-07-29T04:22:24.693Z,74.29
2022-07-29T04:23:25.436Z,74.29
2022-07-29T04:24:26.996Z,74.29
2022-07-29T04:25:26.139Z,74.25
2022-07-29T04:27:41.742Z,74.15
2022-07-29T04:28:42.797Z,74.05
2022-07-29T04:29:56.243Z,74.05
2022-07-29T04:30:43.056Z,74.05
2022-07-29T04:31:43.233Z,73.81
2022-07-29T04:32:43.195Z,73.71
2022-07-29T04:33:43.259Z,73.61
2022-07-29T04:34:43.316Z,73.61
2022-07-29T04:35:48.212Z,73.51
2022-07-29T04:36:43.496Z,73.51
2022-07-29T04:37:43.553Z,73.38
2022-07-29T04:38:43.636Z,73.38
2022-07-29T04:39:43.742Z,73.38
2022-07-29T04:40:43.882Z,73.27
2022-07-29T04:41:43.874Z,73.27
2022-07-29T04:42:46.569Z,73.27
2022-07-29T04:43:44.017Z,73.27
2022-07-29T04:44:44.051Z,73.27
2022-07-29T04:45:44.152Z,73.18
2022-07-29T04:46:44.344Z,73.14
2022-07-29T04:47:44.299Z,73.24
2022-07-29T04:48:44.435Z,73.24
2022-07-29T04:49:44.426Z,73.14
2022-07-29T04:50:44.524Z,73.14
2022-07-29T04:51:44.582Z,73.14
2022-07-29T04:52:44.629Z,73.14
2022-07-29T04:53:44.718Z,73.04
2022-07-29T04:54:44.796Z,73.04
2022-07-29T04:55:44.899Z,73.04
2022-07-29T04:56:44.985Z,73.04
2022-07-29T04:57:45.038Z,73.04
2022-07-29T04:58:45.128Z,72.94
2022-07-29T04:59:45.217Z,73.00
2022-07-29T05:00:45.333Z,72.90
2022-07-29T05:01:45.531Z,72.90
2022-07-29T05:02:45.544Z,73.00
2022-07-29T05:03:45.543Z,73.00
2022-07-29T05:04:45.586Z,72.90
2022-07-29T05:05:45.715Z,72.90
2022-07-29T05:06:45.767Z,72.80
2022-07-29T05:07:45.855Z,72.80
2022-07-29T05:08:45.965Z,72.80
2022-07-29T05:09:46.031Z,72.71
2022-07-29T05:10:46.114Z,72.60
2022-07-29T05:11:46.192Z,72.60
2022-07-29T05:12:46.292Z,72.64
2022-07-29T05:13:47.144Z,72.53
2022-07-29T05:14:46.420Z,72.53
2022-07-29T05:15:46.629Z,72.53
2022-07-29T05:16:46.572Z,72.53
2022-07-29T05:17:46.670Z,72.53
2022-07-29T05:18:46.731Z,72.53
2022-07-29T05:19:46.835Z,72.64
2022-07-29T05:20:46.911Z,72.67
2022-07-29T05:21:46.967Z,72.67
2022-07-29T05:22:47.027Z,72.77
2022-07-29T05:23:47.119Z,72.84
2022-07-29T05:24:47.190Z,72.94
2022-07-29T05:25:47.305Z,73.04
2022-07-29T05:26:47.398Z,73.24
2022-07-29T05:27:47.476Z,73.14
2022-07-29T05:28:47.542Z,73.34
2022-07-29T05:29:47.650Z,73.24
2022-07-29T05:30:47.799Z,73.24
2022-07-29T05:31:47.818Z,73.24
2022-07-29T05:32:47.873Z,73.14
2022-07-29T05:33:47.968Z,73.14
2022-07-29T05:34:51.382Z,73.10
2022-07-29T05:35:48.177Z,73.10
2022-07-29T05:36:48.224Z,73.10
2022-07-29T05:37:48.337Z,73.10
2022-07-29T05:38:48.394Z,73.10
2022-07-29T05:39:56.405Z,73.00
2022-07-29T05:40:48.606Z,73.00
2022-07-29T05:41:51.837Z,73.00
2022-07-29T05:42:48.746Z,73.00
2022-07-29T05:43:48.803Z,73.00
2022-07-29T05:44:48.895Z,73.00
2022-07-29T05:45:49.248Z,73.00
2022-07-29T05:46:49.115Z,73.00
2022-07-29T05:47:49.178Z,73.10
2022-07-29T05:48:49.270Z,73.10
2022-07-29T05:49:49.300Z,73.21
2022-07-29T05:50:49.374Z,73.21
2022-07-29T05:51:49.440Z,73.30
2022-07-29T05:52:49.480Z,73.21
2022-07-29T05:53:49.550Z,73.21
2022-07-29T05:54:49.622Z,73.30
2022-07-29T05:55:49.754Z,73.30
2022-07-29T05:56:49.781Z,73.50
2022-07-29T05:57:49.861Z,73.57
2022-07-29T05:58:49.958Z,73.81
2022-07-29T05:59:50.013Z,73.77
2022-07-29T06:00:50.112Z,73.91
2022-07-29T06:01:50.254Z,73.87
2022-07-29T06:02:50.278Z,73.87
2022-07-29T06:03:50.372Z,73.67
2022-07-29T06:04:50.508Z,73.57
2022-07-29T06:05:50.550Z,73.50
2022-07-29T06:06:50.611Z,73.37
2022-07-29T06:07:51.663Z,73.50
2022-07-29T06:08:50.779Z,73.50
2022-07-29T06:09:50.835Z,73.71
2022-07-29T06:10:50.925Z,73.67
2022-07-29T06:11:50.988Z,73.77
2022-07-29T06:12:51.033Z,73.77
2022-07-29T06:13:51.127Z,73.77
2022-07-29T06:14:54.207Z,73.77
2022-07-29T06:15:51.395Z,73.77
2022-07-29T06:16:51.490Z,73.77
2022-07-29T06:17:59.750Z,73.77
2022-07-29T06:18:51.569Z,73.87
2022-07-29T06:19:51.616Z,73.87
2022-07-29T06:20:51.713Z,73.87
2022-07-29T06:21:51.771Z,73.87
2022-07-29T06:22:51.862Z,73.97
2022-07-29T06:23:51.958Z,74.18
2022-07-29T06:24:52.008Z,74.27
2022-07-29T06:25:52.123Z,74.18
2022-07-29T06:26:52.189Z,74.27
2022-07-29T06:27:52.280Z,74.27
2022-07-29T06:28:52.377Z,74.27
2022-07-29T06:29:52.477Z,74.27
2022-07-29T06:30:52.658Z,74.27
2022-07-29T06:31:52.651Z,74.18
2022-07-29T06:32:52.758Z,74.18
2022-07-29T06:33:54.694Z,74.18
2022-07-29T06:34:53.527Z,74.18
2022-07-29T06:35:54.983Z,74.18
2022-07-29T06:36:53.031Z,74.27
2022-07-29T06:37:55.287Z,74.27
2022-07-29T06:38:53.230Z,74.27
2022-07-29T06:39:56.681Z,74.27
2022-07-29T06:40:53.464Z,74.18
2022-07-29T06:41:53.449Z,74.07
2022-07-29T06:42:53.540Z,73.87
2022-07-29T06:43:54.558Z,73.87
2022-07-29T06:44:53.696Z,73.87
2022-07-29T06:45:53.857Z,73.97
2022-07-29T06:46:53.852Z,73.87
2022-07-29T06:47:53.947Z,73.87
2022-07-29T06:48:54.127Z,74.07
2022-07-29T06:49:54.114Z,74.07
2022-07-29T06:50:54.218Z,74.07
2022-07-29T06:51:54.257Z,74.18
2022-07-29T06:52:54.333Z,74.18
2022-07-29T06:54:01.422Z,74.37
2022-07-29T06:54:54.515Z,74.37
2022-07-29T06:55:54.639Z,74.34
2022-07-29T06:56:54.715Z,74.44
2022-07-29T06:57:54.789Z,74.44
2022-07-29T06:58:54.866Z,74.44
2022-07-29T06:59:54.922Z,74.44
2022-07-29T07:00:55.127Z,74.54
2022-07-29T07:01:55.086Z,74.54
2022-07-29T07:02:55.244Z,74.44
2022-07-29T07:03:55.247Z,74.44
2022-07-29T07:04:55.335Z,74.44
2022-07-29T07:05:55.429Z,74.44
2022-07-29T07:06:55.508Z,74.44
2022-07-29T07:07:55.589Z,74.44
2022-07-29T07:08:55.676Z,74.44
2022-07-29T07:09:55.763Z,74.44
2022-07-29T07:10:55.879Z,74.44
2022-07-29T07:11:55.935Z,74.54
2022-07-29T07:12:55.982Z,74.64
2022-07-29T07:14:00.654Z,74.74
2022-07-29T07:14:56.143Z,74.74
2022-07-29T07:15:56.248Z,74.74
2022-07-29T07:16:56.336Z,74.74
2022-07-29T07:17:56.376Z,74.74
2022-07-29T07:18:56.455Z,74.74
2022-07-29T07:19:56.556Z,74.84
2022-07-29T07:20:56.659Z,74.74
2022-07-29T07:21:56.740Z,74.60
2022-07-29T07:22:56.774Z,74.64
2022-07-29T07:23:56.870Z,74.60
2022-07-29T07:24:56.969Z,74.51
2022-07-29T07:25:57.073Z,74.51
2022-07-29T07:26:57.126Z,74.51
2022-07-29T07:27:57.180Z,74.54
2022-07-29T07:28:57.287Z,74.51
2022-07-29T07:29:57.324Z,74.51
2022-07-29T07:30:57.408Z,74.51
2022-07-29T07:32:00.936Z,74.51
2022-07-29T07:32:57.581Z,74.51
2022-07-29T07:33:57.711Z,74.51
2022-07-29T07:34:57.741Z,74.71
2022-07-29T07:35:57.877Z,74.71
2022-07-29T07:36:57.957Z,74.71
2022-07-29T07:37:58.033Z,74.71
2022-07-29T07:38:58.114Z,74.80
2022-07-29T07:41:55.528Z,74.90
2022-07-29T07:42:56.571Z,74.94
2022-07-29T07:43:56.675Z,74.94
2022-07-29T07:45:12.529Z,75.04
2022-07-29T07:45:56.992Z,75.04
2022-07-29T07:46:56.945Z,74.84
2022-07-29T07:47:56.989Z,74.64
2022-07-29T07:48:57.126Z,74.60
2022-07-29T07:49:57.143Z,74.60
2022-07-29T07:50:57.271Z,74.51
2022-07-29T07:51:57.335Z,74.51
2022-07-29T07:52:57.432Z,74.40
2022-07-29T07:53:57.747Z,74.40
2022-07-29T07:54:57.596Z,74.40
2022-07-29T07:56:10.530Z,74.40
2022-07-29T07:56:57.769Z,74.40
2022-07-29T07:57:57.859Z,74.40
2022-07-29T07:58:57.955Z,74.40
2022-07-29T07:59:58.023Z,74.40
2022-07-29T08:00:58.197Z,74.40
2022-07-29T08:01:58.261Z,74.30
2022-07-29T08:02:58.289Z,74.20
2022-07-29T08:03:58.334Z,74.20
2022-07-29T08:04:58.426Z,74.30
2022-07-29T08:05:58.552Z,74.40
2022-07-29T08:06:58.595Z,74.27
2022-07-29T08:07:58.692Z,74.37
2022-07-29T08:09:19.542Z,74.37
2022-07-29T08:09:58.875Z,74.37
2022-07-29T08:10:58.992Z,74.47
2022-07-29T08:11:59.023Z,74.47
2022-07-29T08:12:59.130Z,74.37
2022-07-29T08:13:59.179Z,74.17
2022-07-29T08:14:59.270Z,74.37
2022-07-29T08:15:59.367Z,74.27
2022-07-29T08:16:59.533Z,74.07
2022-07-29T08:17:59.526Z,73.93
2022-07-29T08:18:59.607Z,73.93
2022-07-29T08:19:59.691Z,73.93
2022-07-29T08:20:59.805Z,73.83
2022-07-29T08:21:59.859Z,73.83
2022-07-29T08:22:59.961Z,73.73
2022-07-29T08:24:05.330Z,73.53
2022-07-29T08:25:00.147Z,73.63
2022-07-29T08:26:00.228Z,73.73
2022-07-29T08:27:00.273Z,73.63
2022-07-29T08:28:00.365Z,73.43
2022-07-29T08:29:00.468Z,73.50
2022-07-29T08:30:00.555Z,73.10
2022-07-29T08:31:00.663Z,72.89
2022-07-29T08:32:00.763Z,72.39
2022-07-29T08:33:00.873Z,72.39
2022-07-29T08:34:00.870Z,72.09
2022-07-29T08:35:00.952Z,71.89
2022-07-29T08:36:01.068Z,71.50
2022-07-29T08:37:01.121Z,71.09
2022-07-29T08:38:01.264Z,71.00
2022-07-29T08:39:01.273Z,71.00
2022-07-29T08:40:01.350Z,71.19
2022-07-29T08:41:01.486Z,71.50
2022-07-29T08:42:01.654Z,71.50
2022-07-29T08:43:01.633Z,71.59
2022-07-29T08:44:01.722Z,71.50
2022-07-29T08:45:01.840Z,71.76
2022-07-29T08:46:01.999Z,71.96
2022-07-29T08:47:01.941Z,72.06
2022-07-29T08:48:02.033Z,72.16
2022-07-29T08:49:02.169Z,71.96
2022-07-29T08:50:02.198Z,72.16
2022-07-29T08:51:02.496Z,72.16
2022-07-29T08:52:02.350Z,72.36
2022-07-29T08:53:02.451Z,72.46
2022-07-29T08:54:02.497Z,72.56
2022-07-29T08:55:02.625Z,72.76
2022-07-29T08:56:02.672Z,72.86
2022-07-29T08:57:02.870Z,73.06
2022-07-29T09:33:11.891Z,71.89
2022-07-29T09:34:12.972Z,72.30
2022-07-29T09:35:13.279Z,72.09
2022-07-29T09:36:13.093Z,72.06
2022-07-29T09:37:13.324Z,72.36
2022-07-29T09:38:13.266Z,72.16
2022-07-29T09:39:13.771Z,71.53
2022-07-29T09:40:13.443Z,69.73
2022-07-29T09:41:13.491Z,69.93
2022-07-29T09:45:00.929Z,68.32
2022-07-29T10:12:42.217Z,71.43
2022-07-29T10:13:43.248Z,71.30
2022-07-29T10:15:00.732Z,70.89
2022-07-29T10:15:43.467Z,70.59
2022-07-29T10:16:43.899Z,70.69
2022-07-29T10:17:54.736Z,70.76
2022-07-29T10:18:43.670Z,70.96
2022-07-29T10:38:57.611Z,73.39
2022-07-29T10:39:58.450Z,72.39
2022-07-29T10:40:58.566Z,72.30
2022-07-29T10:43:12.190Z,71.76
2022-07-29T10:45:33.671Z,70.36
2022-07-29T10:46:34.773Z,70.56
2022-07-29T10:47:35.208Z,70.96
2022-07-29T10:48:34.813Z,71.06
2022-07-29T10:49:35.697Z,71.06
2022-07-29T10:52:19.261Z,68.96
2022-07-29T10:53:20.262Z,68.66
2022-07-29T10:56:20.482Z,68.36
2022-07-29T11:01:50.263Z,66.55
2022-07-29T11:02:45.055Z,66.46
2022-07-29T11:05:39.957Z,65.75
2022-07-29T11:06:33.523Z,65.16
2022-07-29T11:07:46.158Z,65.25
2022-07-29T11:08:33.714Z,65.52
2022-07-29T11:09:37.489Z,65.83
2022-07-29T11:10:33.830Z,65.83
2022-07-29T11:11:34.886Z,65.42
2022-07-29T11:12:34.031Z,64.83
2022-07-29T11:13:37.200Z,64.79
2022-07-29T11:14:34.207Z,65.09
2022-07-29T11:15:34.312Z,65.39
2022-07-29T11:16:34.391Z,65.39
2022-07-29T11:17:46.980Z,64.89
2022-07-29T11:18:34.551Z,65.09
2022-07-29T11:19:34.600Z,64.69
2022-07-29T11:20:34.722Z,64.26
2022-07-29T11:21:49.051Z,64.46
2022-07-29T11:22:34.864Z,64.46
2022-07-29T11:23:34.958Z,64.46
2022-07-29T11:24:35.375Z,64.46
2022-07-29T11:25:42.990Z,64.36
2022-07-29T11:26:35.189Z,64.33
2022-07-29T11:27:35.264Z,62.63
2022-07-29T11:28:35.362Z,62.53
2022-07-29T11:29:39.815Z,62.73
2022-07-29T11:30:35.532Z,62.90
2022-07-29T11:31:35.626Z,63.10
2022-07-29T11:32:36.759Z,63.60
2022-07-29T11:33:54.562Z,63.50
2022-07-29T11:34:35.843Z,63.20
2022-07-29T11:35:37.424Z,62.77
2022-07-29T11:36:35.999Z,62.67
2022-07-29T11:37:42.558Z,62.48
2022-07-29T11:38:36.188Z,62.27
2022-07-29T11:39:37.626Z,62.48
2022-07-29T11:40:36.359Z,62.57
2022-07-29T11:41:36.427Z,61.87
2022-07-29T11:42:36.510Z,61.05
2022-07-29T11:43:36.558Z,60.65
2022-07-29T11:44:36.626Z,60.55
2022-07-29T12:07:11.173Z,60.42
2022-07-29T12:07:20.386Z,61.82
2022-07-29T12:08:19.780Z,61.61
2022-07-29T12:09:19.853Z,61.52
2022-07-29T12:10:29.788Z,62.31
2022-07-29T12:11:20.618Z,62.61
2022-07-29T12:12:20.091Z,62.51
2022-07-29T12:13:20.213Z,62.31
2022-07-29T12:14:20.228Z,62.41
2022-07-29T12:15:20.425Z,61.82
2022-07-29T12:16:27.921Z,62.51
2022-07-29T12:17:20.489Z,63.51
2022-07-29T12:18:20.601Z,64.28
2022-07-29T12:19:20.623Z,64.48
2022-07-29T12:20:20.718Z,64.07
2022-07-29T12:21:20.817Z,63.68
2022-07-29T12:22:20.941Z,62.78
2022-07-29T12:23:20.983Z,62.29
2022-07-29T12:24:21.086Z,62.29
2022-07-29T12:25:36.468Z,61.09
2022-07-29T12:26:21.774Z,59.99
2022-07-29T12:27:29.485Z,60.29
2022-07-29T12:28:27.450Z,60.36
2022-07-29T12:29:34.857Z,60.56
2022-07-29T12:30:21.538Z,61.66
2022-07-29T12:31:43.003Z,62.05
2022-07-29T12:32:21.735Z,61.85
2022-07-29T12:33:22.300Z,61.96
2022-07-29T12:34:21.861Z,62.15
2022-07-29T12:35:21.982Z,61.96
2022-07-29T12:36:22.070Z,61.66
2022-07-29T12:37:40.866Z,61.25
2022-07-29T12:38:22.246Z,60.86
2022-07-29T12:39:22.295Z,61.55
2022-07-29T12:40:22.406Z,61.53
2022-07-29T12:41:22.467Z,61.53
2022-07-29T12:42:22.550Z,61.13
2022-07-29T12:43:22.689Z,61.06
2022-07-29T12:44:22.767Z,60.96
2022-07-29T12:45:22.815Z,61.06
2022-07-29T12:46:23.010Z,60.56
2022-07-29T12:47:23.006Z,59.66
2022-07-29T12:48:23.084Z,59.64
2022-07-29T12:49:23.206Z,59.64
2022-07-29T12:50:26.270Z,59.14
2022-07-29T12:51:23.308Z,59.44
2022-07-29T12:52:23.431Z,59.34
2022-07-29T12:53:23.535Z,59.44
2022-07-29T12:54:23.589Z,59.41
2022-07-29T12:55:23.666Z,59.11
2022-07-29T12:56:42.184Z,59.01
2022-07-29T12:57:23.860Z,58.81
2022-07-29T12:58:23.935Z,59.01
2022-07-29T12:59:23.964Z,59.41
2022-07-29T13:00:24.169Z,59.41
2022-07-29T13:01:24.162Z,58.81
2022-07-29T13:02:24.260Z,58.58
2022-07-29T13:03:24.309Z,58.69
2022-07-29T13:04:24.369Z,58.48
2022-07-29T13:05:24.477Z,58.39
2022-07-29T13:06:24.550Z,58.28
2022-07-29T13:07:55.740Z,57.99
2022-07-29T13:08:24.729Z,58.09
2022-07-29T13:09:24.740Z,58.28
2022-07-29T13:10:25.144Z,58.28
2022-07-29T13:11:24.911Z,58.09
2022-07-29T13:12:25.154Z,58.48
2022-07-29T13:13:25.093Z,58.88
2022-07-29T13:14:25.146Z,58.98
2022-07-29T13:15:25.259Z,58.58
2022-07-29T13:16:25.361Z,58.58
2022-07-29T13:17:25.400Z,58.58
2022-07-29T13:18:25.512Z,57.96
2022-07-29T13:19:25.561Z,57.17
2022-07-29T13:20:25.621Z,56.67
2022-07-29T13:21:25.708Z,57.17
2022-07-29T13:22:25.810Z,57.46
2022-07-29T13:23:25.882Z,57.36
2022-07-29T13:24:25.966Z,57.46
2022-07-29T13:25:26.045Z,57.86
2022-07-29T13:26:26.149Z,58.06
2022-07-29T13:27:26.229Z,57.36
2022-07-29T13:28:26.302Z,57.46
2022-07-29T13:29:31.121Z,57.46
2022-07-29T13:30:26.450Z,57.36
2022-07-29T13:31:26.489Z,57.26
2022-07-29T13:32:28.473Z,57.66
2022-07-29T13:33:26.718Z,57.17
2022-07-29T13:34:26.759Z,57.26
2022-07-29T13:35:26.848Z,57.36
2022-07-29T13:36:26.958Z,57.36
2022-07-29T13:37:27.003Z,57.17
2022-07-29T13:38:31.086Z,56.67
2022-07-29T13:39:27.217Z,56.07
2022-07-29T13:40:27.279Z,55.47
2022-07-29T13:41:27.384Z,55.27
2022-07-29T13:42:27.488Z,54.88
2022-07-29T13:43:27.554Z,54.48
2022-07-29T13:44:27.594Z,54.68
2022-07-29T13:45:29.014Z,54.68
2022-07-29T13:46:27.789Z,54.88
2022-07-29T13:47:32.703Z,55.08
2022-07-29T13:48:27.940Z,54.48
2022-07-29T13:49:28.010Z,54.68
2022-07-29T13:50:28.084Z,54.97
2022-07-29T13:51:28.195Z,55.08
2022-07-29T13:52:37.270Z,54.97
2022-07-29T13:53:28.490Z,54.97
2022-07-29T13:54:28.429Z,54.18
2022-07-29T13:55:28.469Z,54.08
2022-07-29T13:56:28.558Z,54.38
2022-07-29T13:57:28.645Z,54.88
2022-07-29T14:00:04.781Z,55.60
2022-07-29T14:01:05.906Z,56.20
2022-07-29T14:02:05.949Z,57.19
2022-07-29T14:03:06.020Z,57.69
2022-07-29T14:04:06.166Z,57.89
2022-07-29T14:05:08.552Z,58.09
2022-07-29T14:06:06.264Z,58.39
2022-07-29T14:07:06.337Z,58.58
2022-07-29T14:08:06.415Z,58.98
2022-07-29T14:09:06.525Z,59.08
2022-07-29T14:10:06.605Z,59.28
2022-07-29T14:11:06.645Z,59.38
2022-07-29T14:12:06.780Z,59.58
2022-07-29T14:13:06.868Z,59.78
2022-07-29T14:14:06.908Z,59.88
2022-07-29T14:15:07.002Z,60.17
2022-07-29T14:16:07.090Z,59.78
2022-07-29T14:17:07.578Z,59.68
2022-07-29T14:18:07.224Z,59.78
2022-07-29T14:19:07.300Z,59.88
2022-07-29T14:20:07.367Z,59.88
2022-07-29T14:21:07.480Z,59.78
2022-07-29T14:22:07.517Z,59.78
2022-07-29T14:23:07.632Z,59.78
2022-07-29T14:24:16.225Z,59.91
2022-07-29T14:25:14.591Z,60.11
2022-07-29T14:26:08.765Z,60.11
2022-07-29T14:27:08.053Z,60.21
2022-07-29T14:28:08.006Z,60.21
2022-07-29T14:29:08.057Z,60.21
2022-07-29T14:30:08.151Z,60.30
2022-07-29T14:31:08.251Z,60.30
2022-07-29T14:32:08.532Z,60.21
2022-07-29T14:33:08.439Z,60.30
2022-07-29T14:34:08.500Z,60.40
2022-07-29T14:35:08.595Z,60.50
2022-07-29T14:36:08.706Z,60.40
2022-07-29T14:37:08.759Z,60.30
2022-07-29T14:38:08.902Z,60.21
2022-07-29T14:39:08.968Z,60.21
2022-07-29T14:40:09.013Z,60.21
2022-07-29T14:41:09.114Z,60.50
2022-07-29T14:42:09.202Z,60.80
2022-07-29T14:43:09.303Z,60.80
2022-07-29T14:44:09.359Z,60.80
2022-07-29T14:45:09.487Z,60.80
2022-07-29T14:46:09.588Z,60.90
2022-07-29T14:47:09.647Z,61.00
2022-07-29T14:48:09.710Z,61.10
2022-07-29T14:49:09.868Z,61.40
2022-07-29T14:50:09.841Z,61.23
2022-07-29T14:51:09.931Z,61.03
2022-07-29T14:52:10.011Z,60.73
2022-07-29T14:53:10.110Z,60.53
2022-07-29T14:54:10.182Z,60.53
2022-07-29T14:55:16.674Z,60.33
2022-07-29T14:56:35.503Z,60.03
2022-07-29T14:57:10.449Z,59.94
2022-07-29T14:58:16.018Z,60.13
2022-07-29T14:59:10.607Z,59.94
2022-07-29T15:00:10.686Z,59.94
2022-07-29T15:01:10.844Z,60.03
2022-07-29T15:02:10.938Z,59.94
2022-07-29T15:03:11.422Z,59.64
2022-07-29T15:04:11.075Z,59.44
2022-07-29T15:05:11.105Z,59.47
2022-07-29T15:06:11.184Z,59.47
2022-07-29T15:07:11.281Z,59.36
2022-07-29T15:08:11.371Z,59.27
2022-07-29T15:09:11.416Z,59.36
2022-07-29T15:10:11.502Z,59.56
2022-07-29T15:11:11.661Z,59.56
2022-07-29T15:12:11.685Z,59.47
2022-07-29T15:13:11.799Z,59.36
2022-07-29T15:14:11.849Z,59.36
2022-07-29T15:15:11.950Z,59.36
2022-07-29T15:16:12.101Z,59.36
2022-07-29T15:17:12.105Z,59.36
2022-07-29T15:18:12.212Z,59.47
2022-07-29T15:19:12.311Z,59.66
2022-07-29T15:20:12.406Z,59.77
2022-07-29T15:21:12.596Z,59.86
2022-07-29T15:22:12.588Z,60.06
2022-07-29T15:23:12.683Z,59.96
2022-07-29T15:24:12.777Z,60.06
2022-07-29T15:25:12.867Z,59.77
2022-07-29T15:26:12.983Z,58.59
2022-07-29T15:27:13.058Z,59.00
2022-07-29T15:28:13.116Z,59.30
2022-07-29T15:29:13.177Z,59.39
2022-07-29T15:30:14.542Z,59.19
2022-07-29T15:31:13.409Z,59.09
2022-07-29T15:32:13.531Z,59.30
2022-07-29T15:33:13.545Z,59.39
2022-07-29T15:34:13.620Z,59.09
2022-07-29T15:35:13.676Z,58.10
2022-07-29T15:36:35.765Z,58.20
2022-07-29T15:37:13.876Z,57.30
2022-07-29T15:38:13.952Z,57.20
2022-07-29T15:39:14.013Z,57.50
2022-07-29T15:40:14.084Z,57.90
2022-07-29T15:41:14.163Z,58.29